createdAt,value
2018-06-02T04:10:26.086Z,1011.05
2018-06-02T04:10:51.571Z,1011.11
2018-06-02T04:11:17.043Z,1011.08
2018-06-02T04:11:42.548Z,1011.1
2018-06-02T04:12:08.023Z,1011.11
2018-06-02T04:12:33.518Z,1011.09
2018-06-02T04:12:58.988Z,1011.11
2018-06-02T04:14:12.769Z,1011.13
2018-06-02T04:14:38.259Z,1011.12
2018-06-02T04:15:03.758Z,1011.15
2018-06-02T04:15:29.246Z,1011.11
2018-06-02T04:15:54.778Z,1011.11
2018-06-02T04:16:20.268Z,1011.15
2018-06-02T04:16:45.772Z,1011.16
2018-06-02T04:17:11.284Z,1011.15
2018-06-02T04:17:36.779Z,1011.16
2018-06-02T04:18:02.271Z,1011.15
2018-06-02T04:18:27.737Z,1011.15
2018-06-02T04:18:53.239Z,1011.14
2018-06-02T04:19:18.715Z,1011.19
2018-06-02T04:19:44.183Z,1011.17
2018-06-02T04:20:09.706Z,1011.21
2018-06-02T04:20:35.219Z,1011.18
2018-06-02T04:21:00.737Z,1011.2
2018-06-02T04:21:26.227Z,1011.21
2018-06-02T04:21:51.772Z,1011.2
2018-06-02T04:22:17.247Z,1011.18
2018-06-02T04:22:42.718Z,1011.22
2018-06-02T04:23:08.249Z,1011.18
2018-06-02T04:23:33.745Z,1011.23
2018-06-02T04:23:59.243Z,1011.19
2018-06-02T04:24:24.733Z,1011.21
2018-06-02T04:24:50.187Z,1011.22
2018-06-02T04:25:15.701Z,1011.21
2018-06-02T04:25:41.205Z,1011.21
2018-06-02T04:26:06.729Z,1011.26
2018-06-02T04:26:32.185Z,1011.27
2018-06-02T04:27:35.673Z,1011.24
2018-06-02T04:28:01.178Z,1011.21
2018-06-02T04:28:26.633Z,1011.26
2018-06-02T04:28:52.176Z,1011.24
2018-06-02T04:29:17.668Z,1011.25
2018-06-02T04:29:43.122Z,1011.2
2018-06-02T04:30:08.604Z,1011.21
2018-06-02T04:30:34.064Z,1011.22
2018-06-02T04:30:59.591Z,1011.21
2018-06-02T04:31:25.091Z,1011.22
2018-06-02T04:31:50.552Z,1011.22
2018-06-02T04:32:16.027Z,1011.26
2018-06-02T04:32:41.570Z,1011.27
2018-06-02T04:33:07.079Z,1011.23
2018-06-02T04:33:32.567Z,1011.29
2018-06-02T04:33:58.024Z,1011.29
2018-06-02T04:34:23.548Z,1011.25
2018-06-02T04:34:49.043Z,1011.24
2018-06-02T04:35:14.559Z,1011.26
2018-06-02T04:36:17.681Z,1011.26
2018-06-02T04:36:43.327Z,1011.27
2018-06-02T04:37:08.793Z,1011.25
2018-06-02T04:37:34.327Z,1011.28
2018-06-02T04:37:59.883Z,1011.25
2018-06-02T04:38:25.386Z,1011.23
2018-06-02T04:38:50.825Z,1011.27
2018-06-02T04:39:16.412Z,1011.22
2018-06-02T04:39:41.917Z,1011.25
2018-06-02T04:40:07.436Z,1011.24
2018-06-02T04:40:33.002Z,1011.25
2018-06-02T04:41:51.559Z,1011.23
2018-06-02T04:42:17.550Z,1011.28
2018-06-02T04:42:43.176Z,1011.22
2018-06-02T04:43:08.759Z,1011.26
2018-06-02T04:43:34.305Z,1011.24
2018-06-02T04:43:59.882Z,1011.23
2018-06-02T04:44:25.382Z,1011.23
2018-06-02T04:44:50.903Z,1011.25
2018-06-02T04:45:16.392Z,1011.22
2018-06-02T04:45:41.870Z,1011.24
2018-06-02T04:46:07.493Z,1011.24
2018-06-02T04:46:33.061Z,1011.26
2018-06-02T04:46:58.784Z,1011.2
2018-06-02T04:47:24.241Z,1011.23
2018-06-02T04:47:49.752Z,1011.21
2018-06-02T04:48:15.230Z,1011.26
2018-06-02T04:48:40.691Z,1011.24
2018-06-02T04:49:06.166Z,1011.24
2018-06-02T04:49:31.657Z,1011.23
2018-06-02T04:49:57.160Z,1011.25
2018-06-02T04:50:22.669Z,1011.26
2018-06-02T04:50:48.128Z,1011.25
2018-06-02T04:51:13.626Z,1011.26
2018-06-02T04:51:39.101Z,1011.28
2018-06-02T04:52:04.586Z,1011.28
2018-06-02T04:52:30.063Z,1011.27
2018-06-02T04:52:55.565Z,1011.27
2018-06-02T04:53:21.041Z,1011.28
2018-06-02T04:53:46.539Z,1011.32
2018-06-02T04:54:11.989Z,1011.3
2018-06-02T04:54:37.497Z,1011.3
2018-06-02T04:55:03.026Z,1011.28
2018-06-02T04:55:28.496Z,1011.3
2018-06-02T04:55:53.982Z,1011.32
2018-06-02T04:56:19.467Z,1011.34
2018-06-02T04:56:44.959Z,1011.34
2018-06-02T04:57:10.430Z,1011.34
2018-06-02T04:57:35.934Z,1011.32
2018-06-02T04:58:01.410Z,1011.33
2018-06-02T04:58:26.912Z,1011.35
2018-06-02T04:58:52.428Z,1011.32
2018-06-02T04:59:17.927Z,1011.34
2018-06-02T04:59:43.393Z,1011.33
2018-06-02T05:00:08.905Z,1011.32
2018-06-02T05:00:34.344Z,1011.36
2018-06-02T05:00:59.864Z,1011.39
2018-06-02T05:01:25.381Z,1011.37
2018-06-02T05:01:50.911Z,1011.35
2018-06-02T05:02:16.412Z,1011.35
2018-06-02T05:02:41.945Z,1011.4
2018-06-02T05:03:07.388Z,1011.34
2018-06-02T05:03:32.914Z,1011.37
2018-06-02T05:03:58.426Z,1011.34
2018-06-02T05:04:23.973Z,1011.36
2018-06-02T05:04:49.434Z,1011.36
2018-06-02T05:05:14.913Z,1011.33
2018-06-02T05:05:40.424Z,1011.34
2018-06-02T05:06:38.528Z,1011.34
2018-06-02T05:07:04.025Z,1011.37
2018-06-02T05:07:29.501Z,1011.35
2018-06-02T05:07:54.985Z,1011.32
2018-06-02T05:08:20.510Z,1011.32
2018-06-02T05:08:46.013Z,1011.35
2018-06-02T05:09:11.508Z,1011.33
2018-06-02T05:09:36.972Z,1011.33
2018-06-02T05:10:02.505Z,1011.36
2018-06-02T05:10:28.019Z,1011.37
2018-06-02T05:10:53.547Z,1011.36
2018-06-02T05:11:19.037Z,1011.31
2018-06-02T05:11:44.517Z,1011.34
2018-06-02T05:12:09.990Z,1011.33
2018-06-02T05:12:35.498Z,1011.39
2018-06-02T05:13:00.996Z,1011.34
2018-06-02T05:13:26.502Z,1011.38
2018-06-02T05:13:52.000Z,1011.38
2018-06-02T05:14:17.546Z,1011.36
2018-06-02T05:14:43.086Z,1011.4
2018-06-02T05:15:08.581Z,1011.39
2018-06-02T05:15:34.075Z,1011.38
2018-06-02T05:15:59.619Z,1011.42
2018-06-02T05:16:25.101Z,1011.4
2018-06-02T05:16:50.597Z,1011.37
2018-06-02T05:17:16.067Z,1011.44
2018-06-02T05:17:41.588Z,1011.43
2018-06-02T05:18:07.085Z,1011.41
2018-06-02T05:18:32.615Z,1011.46
2018-06-02T05:18:58.108Z,1011.4
2018-06-02T05:19:23.645Z,1011.45
2018-06-02T05:19:49.117Z,1011.46
2018-06-02T05:20:14.591Z,1011.44
2018-06-02T05:20:40.094Z,1011.46
2018-06-02T05:21:05.589Z,1011.46
2018-06-02T05:21:31.064Z,1011.46
2018-06-02T05:21:56.563Z,1011.44
2018-06-02T05:22:22.031Z,1011.46
2018-06-02T05:22:47.542Z,1011.47
2018-06-02T05:23:13.033Z,1011.46
2018-06-02T05:23:38.533Z,1011.5
2018-06-02T05:24:04.051Z,1011.5
2018-06-02T05:24:29.572Z,1011.53
2018-06-02T05:24:55.079Z,1011.48
2018-06-02T05:25:20.579Z,1011.52
2018-06-02T05:25:46.126Z,1011.54
2018-06-02T05:26:11.593Z,1011.55
2018-06-02T05:26:37.091Z,1011.56
2018-06-02T05:27:02.605Z,1011.56
2018-06-02T05:27:28.070Z,1011.56
2018-06-02T05:27:53.577Z,1011.55
2018-06-02T05:28:19.118Z,1011.55
2018-06-02T05:28:44.623Z,1011.59
2018-06-02T05:29:10.198Z,1011.57
2018-06-02T05:29:35.683Z,1011.6
2018-06-02T05:30:01.236Z,1011.57
2018-06-02T05:30:26.782Z,1011.59
2018-06-02T05:30:52.273Z,1011.59
2018-06-02T05:31:17.774Z,1011.62
2018-06-02T05:31:43.348Z,1011.62
2018-06-02T05:32:08.930Z,1011.58
2018-06-02T05:32:34.584Z,1011.62
2018-06-02T05:33:00.197Z,1011.61
2018-06-02T05:33:25.668Z,1011.6
2018-06-02T05:33:51.152Z,1011.63
2018-06-02T05:34:16.643Z,1011.64
2018-06-02T05:34:42.136Z,1011.63
2018-06-02T05:35:07.639Z,1011.62
2018-06-02T05:35:33.186Z,1011.59
2018-06-02T05:35:58.704Z,1011.58
2018-06-02T05:36:24.268Z,1011.62
2018-06-02T05:36:49.805Z,1011.63
2018-06-02T05:37:15.332Z,1011.59
2018-06-02T05:37:40.827Z,1011.62
2018-06-02T05:38:06.360Z,1011.63
2018-06-02T05:38:31.824Z,1011.63
2018-06-02T05:38:57.326Z,1011.59
2018-06-02T05:39:22.844Z,1011.6
2018-06-02T05:39:48.317Z,1011.6
2018-06-02T05:40:13.825Z,1011.6
2018-06-02T05:40:39.328Z,1011.59
2018-06-02T05:41:04.807Z,1011.65
2018-06-02T05:41:30.267Z,1011.61
2018-06-02T05:41:55.754Z,1011.63
2018-06-02T05:42:21.221Z,1011.59
2018-06-02T05:42:46.701Z,1011.6
2018-06-02T05:43:12.179Z,1011.61
2018-06-02T05:43:37.686Z,1011.62
2018-06-02T05:44:03.180Z,1011.64
2018-06-02T05:44:28.671Z,1011.61
2018-06-02T05:44:54.159Z,1011.61
2018-06-02T05:45:19.651Z,1011.63
2018-06-02T05:45:45.115Z,1011.68
2018-06-02T05:46:10.588Z,1011.68
2018-06-02T05:46:36.084Z,1011.63
2018-06-02T05:47:01.577Z,1011.62
2018-06-02T05:47:27.034Z,1011.61
2018-06-02T05:47:52.524Z,1011.63
2018-06-02T05:48:18.031Z,1011.64
2018-06-02T05:48:43.499Z,1011.69
2018-06-02T05:49:08.968Z,1011.67
2018-06-02T05:49:34.456Z,1011.64
2018-06-02T05:49:59.951Z,1011.63
2018-06-02T05:50:25.430Z,1011.67
2018-06-02T05:50:50.939Z,1011.64
2018-06-02T05:51:16.447Z,1011.63
2018-06-02T05:51:41.918Z,1011.68
2018-06-02T05:52:07.397Z,1011.66
2018-06-02T05:52:32.900Z,1011.67
2018-06-02T05:52:58.397Z,1011.66
2018-06-02T05:53:23.899Z,1011.68
2018-06-02T05:53:49.392Z,1011.62
2018-06-02T05:54:14.889Z,1011.64
2018-06-02T05:54:40.438Z,1011.65
2018-06-02T05:55:05.919Z,1011.68
2018-06-02T05:55:31.456Z,1011.66
2018-06-02T05:55:56.929Z,1011.64
2018-06-02T05:56:22.467Z,1011.64
2018-06-02T05:56:47.892Z,1011.64
2018-06-02T05:57:13.395Z,1011.71
2018-06-02T05:57:38.901Z,1011.64
2018-06-02T05:58:04.401Z,1011.65
2018-06-02T05:58:29.902Z,1011.65
2018-06-02T05:58:55.455Z,1011.64
2018-06-02T05:59:20.951Z,1011.65
2018-06-02T05:59:46.447Z,1011.64
2018-06-02T06:00:11.917Z,1011.65
2018-06-02T06:00:37.435Z,1011.62
2018-06-02T06:01:02.942Z,1011.64
2018-06-02T06:01:28.427Z,1011.66
2018-06-02T06:01:53.925Z,1011.65
2018-06-02T06:02:19.426Z,1011.66
2018-06-02T06:02:44.971Z,1011.65
2018-06-02T06:03:10.447Z,1011.64
2018-06-02T06:03:35.941Z,1011.64
2018-06-02T06:04:01.499Z,1011.66
2018-06-02T06:04:27.010Z,1011.66
2018-06-02T06:04:52.511Z,1011.64
2018-06-02T06:05:17.994Z,1011.65
2018-06-02T06:05:43.571Z,1011.62
2018-06-02T06:06:09.106Z,1011.64
2018-06-02T06:06:34.566Z,1011.63
2018-06-02T06:07:00.078Z,1011.65
2018-06-02T06:08:13.411Z,1011.63
2018-06-02T06:08:38.958Z,1011.6
2018-06-02T06:09:04.484Z,1011.66
2018-06-02T06:09:29.994Z,1011.63
2018-06-02T06:09:55.528Z,1011.66
2018-06-02T06:10:21.146Z,1011.61
2018-06-02T06:10:46.649Z,1011.62
2018-06-02T06:11:12.191Z,1011.67
2018-06-02T06:11:37.707Z,1011.62
2018-06-02T06:12:03.189Z,1011.64
2018-06-02T06:12:28.680Z,1011.6
2018-06-02T06:12:54.179Z,1011.63
2018-06-02T06:13:19.661Z,1011.62
2018-06-02T06:13:45.155Z,1011.63
2018-06-02T06:14:10.655Z,1011.62
2018-06-02T06:14:36.149Z,1011.65
2018-06-02T06:15:01.649Z,1011.66
2018-06-02T06:15:27.180Z,1011.67
2018-06-02T06:15:52.657Z,1011.62
2018-06-02T06:16:18.131Z,1011.64
2018-06-02T06:16:43.647Z,1011.63
2018-06-02T06:17:09.117Z,1011.65
2018-06-02T06:17:34.609Z,1011.63
2018-06-02T06:18:00.105Z,1011.67
2018-06-02T06:18:25.657Z,1011.65
2018-06-02T06:18:51.142Z,1011.67
2018-06-02T06:19:16.666Z,1011.64
2018-06-02T06:19:42.163Z,1011.65
2018-06-02T06:20:07.729Z,1011.64
2018-06-02T06:20:33.178Z,1011.64
2018-06-02T06:20:58.653Z,1011.65
2018-06-02T06:21:24.171Z,1011.64
2018-06-02T06:21:49.664Z,1011.63
2018-06-02T06:22:15.155Z,1011.62
2018-06-02T06:22:40.645Z,1011.66
2018-06-02T06:23:06.160Z,1011.59
2018-06-02T06:23:31.655Z,1011.63
2018-06-02T06:23:57.161Z,1011.62
2018-06-02T06:24:22.586Z,1011.62
2018-06-02T06:24:48.138Z,1011.63
2018-06-02T06:25:13.636Z,1011.63
2018-06-02T06:25:39.147Z,1011.64
2018-06-02T06:26:04.615Z,1011.67
2018-06-02T06:27:02.693Z,1011.66
2018-06-02T06:27:28.189Z,1011.64
2018-06-02T06:27:53.688Z,1011.66
2018-06-02T06:28:19.163Z,1011.64
2018-06-02T06:28:44.701Z,1011.68
2018-06-02T06:29:10.200Z,1011.67
2018-06-02T06:29:35.672Z,1011.65
2018-06-02T06:30:01.147Z,1011.63
2018-06-02T06:30:26.713Z,1011.67
2018-06-02T06:30:52.225Z,1011.64
2018-06-02T06:31:17.803Z,1011.67
2018-06-02T06:31:43.279Z,1011.67
2018-06-02T06:32:08.936Z,1011.65
2018-06-02T06:32:34.422Z,1011.71
2018-06-02T06:32:59.999Z,1011.64
2018-06-02T06:33:25.429Z,1011.64
2018-06-02T06:33:50.944Z,1011.69
2018-06-02T06:34:16.417Z,1011.66
2018-06-02T06:34:41.887Z,1011.65
2018-06-02T06:35:07.413Z,1011.66
2018-06-02T06:35:32.902Z,1011.71
2018-06-02T06:35:58.387Z,1011.69
2018-06-02T06:36:23.885Z,1011.65
2018-06-02T06:36:49.338Z,1011.65
2018-06-02T06:37:14.935Z,1011.67
2018-06-02T06:37:40.503Z,1011.64
2018-06-02T06:38:06.017Z,1011.67
2018-06-02T06:38:31.494Z,1011.67
2018-06-02T06:38:56.991Z,1011.65
2018-06-02T06:39:22.495Z,1011.62
2018-06-02T06:39:47.988Z,1011.66
2018-06-02T06:40:13.471Z,1011.69
2018-06-02T06:40:39.006Z,1011.66
2018-06-02T06:41:04.481Z,1011.67
2018-06-02T06:41:29.990Z,1011.68
2018-06-02T06:41:55.465Z,1011.65
2018-06-02T06:42:20.970Z,1011.7
2018-06-02T06:42:46.451Z,1011.62
2018-06-02T06:43:11.938Z,1011.65
2018-06-02T06:43:37.447Z,1011.64
2018-06-02T06:44:02.983Z,1011.65
2018-06-02T06:44:28.516Z,1011.68
2018-06-02T06:44:53.926Z,1011.67
2018-06-02T06:45:19.407Z,1011.68
2018-06-02T06:45:44.901Z,1011.73
2018-06-02T06:46:10.422Z,1011.72
2018-06-02T06:46:35.925Z,1011.73
2018-06-02T06:47:01.384Z,1011.71
2018-06-02T06:47:26.908Z,1011.73
2018-06-02T06:47:52.383Z,1011.7
2018-06-02T06:48:17.873Z,1011.69
2018-06-02T06:48:43.383Z,1011.71
2018-06-02T06:49:08.876Z,1011.75
2018-06-02T06:49:34.361Z,1011.72
2018-06-02T06:49:59.870Z,1011.74
2018-06-02T06:50:25.324Z,1011.74
2018-06-02T06:50:50.829Z,1011.73
2018-06-02T06:51:16.307Z,1011.75
2018-06-02T06:51:41.820Z,1011.74
2018-06-02T06:52:07.336Z,1011.78
2018-06-02T06:52:32.807Z,1011.8
2018-06-02T06:52:58.313Z,1011.78
2018-06-02T06:53:23.855Z,1011.74
2018-06-02T06:53:49.359Z,1011.78
2018-06-02T06:54:14.900Z,1011.75
2018-06-02T06:54:40.368Z,1011.73
2018-06-02T06:55:05.909Z,1011.74
2018-06-02T06:55:31.367Z,1011.74
2018-06-02T06:55:56.882Z,1011.71
2018-06-02T06:56:22.432Z,1011.74
2018-06-02T06:56:47.918Z,1011.75
2018-06-02T06:57:13.373Z,1011.77
2018-06-02T06:57:38.911Z,1011.77
2018-06-02T06:58:04.370Z,1011.77
2018-06-02T06:58:29.920Z,1011.73
2018-06-02T06:58:55.398Z,1011.74
2018-06-02T06:59:20.912Z,1011.8
2018-06-02T06:59:46.402Z,1011.76
2018-06-02T07:00:11.885Z,1011.77
2018-06-02T07:00:37.422Z,1011.78
2018-06-02T07:01:02.928Z,1011.75
2018-06-02T07:01:28.469Z,1011.81
2018-06-02T07:02:42.392Z,1011.78
2018-06-02T07:03:07.882Z,1011.78
2018-06-02T07:03:33.382Z,1011.78
2018-06-02T07:03:58.901Z,1011.82
2018-06-02T07:04:24.547Z,1011.77
2018-06-02T07:04:49.975Z,1011.82
2018-06-02T07:05:15.547Z,1011.84
2018-06-02T07:05:41.177Z,1011.82
2018-06-02T07:06:06.695Z,1011.81
2018-06-02T07:06:32.193Z,1011.83
2018-06-02T07:06:57.676Z,1011.82
2018-06-02T07:07:23.177Z,1011.85
2018-06-02T07:07:48.664Z,1011.83
2018-06-02T07:08:14.174Z,1011.88
2018-06-02T07:08:39.662Z,1011.83
2018-06-02T07:09:05.193Z,1011.81
2018-06-02T07:09:30.701Z,1011.85
2018-06-02T07:09:56.178Z,1011.82
2018-06-02T07:10:21.656Z,1011.82
2018-06-02T07:10:47.146Z,1011.82
2018-06-02T07:11:12.622Z,1011.87
2018-06-02T07:11:38.121Z,1011.85
2018-06-02T07:12:03.633Z,1011.85
2018-06-02T07:12:29.216Z,1011.85
2018-06-02T07:12:54.734Z,1011.87
2018-06-02T07:13:20.239Z,1011.86
2018-06-02T07:13:45.742Z,1011.85
2018-06-02T07:14:11.248Z,1011.84
2018-06-02T07:14:36.736Z,1011.85
2018-06-02T07:15:02.258Z,1011.82
2018-06-02T07:15:27.895Z,1011.85
2018-06-02T07:15:53.392Z,1011.88
2018-06-02T07:16:18.892Z,1011.89
2018-06-02T07:16:44.363Z,1011.88
2018-06-02T07:17:09.879Z,1011.86
2018-06-02T07:17:35.348Z,1011.86
2018-06-02T07:18:00.825Z,1011.83
2018-06-02T07:18:26.323Z,1011.85
2018-06-02T07:18:51.818Z,1011.86
2018-06-02T07:19:17.316Z,1011.87
2018-06-02T07:19:42.821Z,1011.91
2018-06-02T07:20:08.320Z,1011.85
2018-06-02T07:20:33.807Z,1011.89
2018-06-02T07:20:59.248Z,1011.87
2018-06-02T07:21:24.787Z,1011.89
2018-06-02T07:21:50.365Z,1011.91
2018-06-02T07:22:15.798Z,1011.87
2018-06-02T07:22:41.375Z,1011.92
2018-06-02T07:23:06.886Z,1011.9
2018-06-02T07:23:32.399Z,1011.96
2018-06-02T07:23:57.892Z,1011.92
2018-06-02T07:24:23.388Z,1011.95
2018-06-02T07:24:48.895Z,1011.94
2018-06-02T07:25:14.376Z,1011.93
2018-06-02T07:25:39.909Z,1011.93
2018-06-02T07:26:05.381Z,1011.9
2018-06-02T07:26:30.935Z,1011.96
2018-06-02T07:26:56.423Z,1011.97
2018-06-02T07:27:21.918Z,1011.97
2018-06-02T07:27:47.423Z,1011.92
2018-06-02T07:28:12.902Z,1011.95
2018-06-02T07:28:38.467Z,1011.91
2018-06-02T07:29:03.985Z,1011.94
2018-06-02T07:29:29.481Z,1011.93
2018-06-02T07:29:54.956Z,1011.95
2018-06-02T07:30:20.453Z,1011.94
2018-06-02T07:30:45.990Z,1011.95
2018-06-02T07:31:11.475Z,1011.97
2018-06-02T07:31:36.978Z,1011.93
2018-06-02T07:32:02.523Z,1011.96
2018-06-02T07:32:27.950Z,1011.96
2018-06-02T07:33:36.209Z,1012.01
2018-06-02T07:34:01.730Z,1011.99
2018-06-02T07:34:27.255Z,1011.99
2018-06-02T07:34:52.960Z,1011.96
2018-06-02T07:35:18.437Z,1011.96
2018-06-02T07:35:44.000Z,1011.98
2018-06-02T07:36:09.532Z,1011.98
2018-06-02T07:36:34.983Z,1011.98
2018-06-02T07:37:00.437Z,1011.99
2018-06-02T07:37:25.897Z,1011.99
2018-06-02T07:37:51.562Z,1011.96
2018-06-02T07:38:17.069Z,1012
2018-06-02T07:38:42.529Z,1012
2018-06-02T07:39:08.026Z,1011.97
2018-06-02T07:39:33.528Z,1011.98
2018-06-02T07:39:59.024Z,1011.96
2018-06-02T07:40:24.512Z,1011.99
2018-06-02T07:40:49.998Z,1012
2018-06-02T07:41:15.548Z,1011.99
2018-06-02T07:41:41.046Z,1011.98
2018-06-02T07:42:06.614Z,1012.01
2018-06-02T07:42:32.120Z,1012
2018-06-02T07:42:57.585Z,1011.98
2018-06-02T07:43:23.079Z,1011.99
2018-06-02T07:43:48.616Z,1011.97
2018-06-02T07:44:14.126Z,1011.95
2018-06-02T07:44:39.591Z,1011.96
2018-06-02T07:45:05.110Z,1011.95
2018-06-02T07:45:30.574Z,1011.94
2018-06-02T07:45:56.095Z,1012.03
2018-06-02T07:46:21.553Z,1011.98
2018-06-02T07:46:47.080Z,1011.93
2018-06-02T07:47:12.560Z,1011.97
2018-06-02T07:47:38.185Z,1011.95
2018-06-02T07:48:03.676Z,1011.95
2018-06-02T07:48:29.153Z,1011.96
2018-06-02T07:48:54.644Z,1011.97
2018-06-02T07:49:20.185Z,1011.96
2018-06-02T07:49:45.691Z,1011.97
2018-06-02T07:50:11.254Z,1012.03
2018-06-02T07:50:36.747Z,1011.97
2018-06-02T07:51:02.214Z,1011.96
2018-06-02T07:51:27.688Z,1011.99
2018-06-02T07:51:53.189Z,1011.97
2018-06-02T07:52:18.648Z,1011.94
2018-06-02T07:52:44.109Z,1011.95
2018-06-02T07:53:09.596Z,1011.93
2018-06-02T07:53:35.094Z,1011.95
2018-06-02T07:54:00.662Z,1011.9
2018-06-02T07:54:26.159Z,1011.93
2018-06-02T07:54:51.654Z,1011.91
2018-06-02T07:55:17.166Z,1011.93
2018-06-02T07:55:42.776Z,1011.91
2018-06-02T07:56:08.398Z,1011.9
2018-06-02T07:56:34.356Z,1011.94
2018-06-02T07:56:59.896Z,1011.94
2018-06-02T07:57:25.309Z,1011.93
2018-06-02T07:57:50.816Z,1011.97
2018-06-02T07:58:16.301Z,1011.94
2018-06-02T07:58:41.736Z,1011.97
2018-06-02T07:59:07.268Z,1011.92
2018-06-02T07:59:32.930Z,1011.9
2018-06-02T07:59:58.324Z,1011.93
2018-06-02T08:00:23.836Z,1011.89
2018-06-02T08:00:49.361Z,1011.93
2018-06-02T08:01:14.851Z,1011.94
2018-06-02T08:01:40.323Z,1011.92
2018-06-02T08:02:05.841Z,1011.94
2018-06-02T08:02:31.355Z,1011.96
2018-06-02T08:02:57.575Z,1011.91
2018-06-02T08:03:23.401Z,1011.94
2018-06-02T08:03:49.029Z,1011.95
2018-06-02T08:04:14.608Z,1011.95
2018-06-02T08:04:40.345Z,1011.92
2018-06-02T08:05:05.870Z,1011.94
2018-06-02T08:05:31.358Z,1011.91
2018-06-02T08:05:56.937Z,1011.92
2018-06-02T08:06:22.437Z,1011.91
2018-06-02T08:06:47.941Z,1011.9
2018-06-02T08:07:13.479Z,1011.89
2018-06-02T08:07:38.980Z,1011.94
2018-06-02T08:08:04.483Z,1011.89
2018-06-02T08:08:30.057Z,1011.87
2018-06-02T08:08:55.532Z,1011.88
2018-06-02T08:10:14.543Z,1011.82
2018-06-02T08:10:40.003Z,1011.83
2018-06-02T08:11:05.618Z,1011.86
2018-06-02T08:11:31.409Z,1011.87
2018-06-02T08:11:56.929Z,1011.86
2018-06-02T08:12:22.557Z,1011.79
2018-06-02T08:12:48.019Z,1011.82
2018-06-02T08:13:13.681Z,1011.8
2018-06-02T08:13:39.201Z,1011.78
2018-06-02T08:14:04.676Z,1011.8
2018-06-02T08:14:30.161Z,1011.83
2018-06-02T08:14:55.660Z,1011.83
2018-06-02T08:15:21.148Z,1011.84
2018-06-02T08:15:46.646Z,1011.85
2018-06-02T08:16:12.113Z,1011.85
2018-06-02T08:16:37.565Z,1011.87
2018-06-02T08:17:03.060Z,1011.86
2018-06-02T08:17:28.507Z,1011.88
2018-06-02T08:17:53.999Z,1011.87
2018-06-02T08:18:19.534Z,1011.85
2018-06-02T08:18:44.996Z,1011.85
2018-06-02T08:19:10.482Z,1011.85
2018-06-02T08:19:36.103Z,1011.86
2018-06-02T08:20:01.563Z,1011.84
2018-06-02T08:20:27.005Z,1011.86
2018-06-02T08:20:52.518Z,1011.87
2018-06-02T08:21:18.013Z,1011.87
2018-06-02T08:21:43.794Z,1011.91
2018-06-02T08:22:10.638Z,1011.85
2018-06-02T08:22:36.593Z,1011.88
2018-06-02T08:23:02.653Z,1011.86
2018-06-02T08:23:28.141Z,1011.87
2018-06-02T08:23:53.759Z,1011.9
2018-06-02T08:24:19.638Z,1011.89
2018-06-02T08:24:46.044Z,1011.93
2018-06-02T08:25:11.514Z,1011.85
2018-06-02T08:25:36.996Z,1011.87
2018-06-02T08:26:02.495Z,1011.83
2018-06-02T08:26:28.044Z,1011.87
2018-06-02T08:26:53.525Z,1011.86
2018-06-02T08:27:19.165Z,1011.84
2018-06-02T08:27:44.590Z,1011.86
2018-06-02T08:28:10.081Z,1011.87
2018-06-02T08:28:35.594Z,1011.86
2018-06-02T08:29:01.161Z,1011.87
2018-06-02T08:29:26.595Z,1011.88
2018-06-02T08:29:52.074Z,1011.86
2018-06-02T08:30:17.593Z,1011.87
2018-06-02T08:30:43.079Z,1011.88
2018-06-02T08:31:08.555Z,1011.87
2018-06-02T08:31:35.689Z,1011.9
2018-06-02T08:32:01.645Z,1011.91
2018-06-02T08:32:27.741Z,1011.9
2018-06-02T08:32:54.102Z,1011.9
2018-06-02T08:33:19.321Z,1011.93
2018-06-02T08:33:44.792Z,1011.91
2018-06-02T08:34:10.257Z,1011.93
2018-06-02T08:34:35.730Z,1011.94
2018-06-02T08:35:01.218Z,1011.93
2018-06-02T08:35:26.784Z,1011.96
2018-06-02T08:35:52.254Z,1011.91
2018-06-02T08:37:06.330Z,1011.96
2018-06-02T08:37:31.837Z,1011.97
2018-06-02T08:37:57.306Z,1011.99
2018-06-02T08:38:22.788Z,1012
2018-06-02T08:38:48.240Z,1011.98
2018-06-02T08:39:13.787Z,1011.97
2018-06-02T08:39:39.196Z,1011.98
2018-06-02T08:40:04.672Z,1011.99
2018-06-02T08:40:30.167Z,1012
2018-06-02T08:40:55.656Z,1012
2018-06-02T08:41:21.130Z,1012
2018-06-02T08:41:46.628Z,1011.99
2018-06-02T08:42:12.081Z,1011.99
2018-06-02T08:42:37.561Z,1012.02
2018-06-02T08:43:03.143Z,1011.97
2018-06-02T08:43:28.642Z,1011.99
2018-06-02T08:43:54.187Z,1012
2018-06-02T08:44:19.623Z,1012
2018-06-02T08:44:45.097Z,1012.03
2018-06-02T08:45:10.595Z,1012.02
2018-06-02T08:45:36.111Z,1012.01
2018-06-02T08:46:01.606Z,1012.03
2018-06-02T08:46:27.092Z,1012.07
2018-06-02T08:46:52.538Z,1012.05
2018-06-02T08:47:18.021Z,1012.06
2018-06-02T08:47:43.503Z,1012.07
2018-06-02T08:48:08.998Z,1012.04
2018-06-02T08:48:34.444Z,1012.08
2018-06-02T08:48:59.912Z,1012.07
2018-06-02T08:49:25.407Z,1012.09
2018-06-02T08:49:50.845Z,1012.05
2018-06-02T08:50:48.908Z,1012.13
2018-06-02T08:51:14.403Z,1012.11
2018-06-02T08:51:39.910Z,1012.1
2018-06-02T08:52:05.460Z,1012.09
2018-06-02T08:52:30.954Z,1012.07
2018-06-02T08:52:56.483Z,1012.06
2018-06-02T08:53:21.979Z,1012.08
2018-06-02T08:53:47.505Z,1012.08
2018-06-02T08:54:13.006Z,1012.09
2018-06-02T08:54:38.506Z,1012.09
2018-06-02T08:55:04.061Z,1012.08
2018-06-02T08:55:29.524Z,1012.08
2018-06-02T08:55:55.028Z,1012.08
2018-06-02T08:56:20.517Z,1012.16
2018-06-02T08:56:45.996Z,1012.12
2018-06-02T08:58:04.944Z,1012.1
2018-06-02T08:58:30.432Z,1012.09
2018-06-02T08:58:55.919Z,1012.1
2018-06-02T08:59:21.400Z,1012.07
2018-06-02T08:59:46.929Z,1012.08
2018-06-02T09:00:12.403Z,1012.15
2018-06-02T09:00:37.863Z,1012.13
2018-06-02T09:01:03.377Z,1012.1
2018-06-02T09:01:29.001Z,1012.11
2018-06-02T09:01:54.501Z,1012.11
2018-06-02T09:02:19.975Z,1012.17
2018-06-02T09:02:45.500Z,1012.17
2018-06-02T09:03:11.009Z,1012.15
2018-06-02T09:03:36.461Z,1012.15
2018-06-02T09:04:01.966Z,1012.15
2018-06-02T09:04:27.448Z,1012.16
2018-06-02T09:04:52.957Z,1012.18
2018-06-02T09:05:18.433Z,1012.17
2018-06-02T09:05:43.918Z,1012.21
2018-06-02T09:06:09.415Z,1012.2
2018-06-02T09:06:34.912Z,1012.18
2018-06-02T09:07:00.393Z,1012.19
2018-06-02T09:07:25.861Z,1012.21
2018-06-02T09:07:51.350Z,1012.23
2018-06-02T09:08:54.948Z,1012.2
2018-06-02T09:09:20.421Z,1012.2
2018-06-02T09:09:45.938Z,1012.17
2018-06-02T09:10:11.442Z,1012.2
2018-06-02T09:10:36.969Z,1012.19
2018-06-02T09:11:02.473Z,1012.19
2018-06-02T09:11:27.974Z,1012.2
2018-06-02T09:11:53.429Z,1012.17
2018-06-02T09:12:18.910Z,1012.2
2018-06-02T09:12:44.419Z,1012.2
2018-06-02T09:13:09.894Z,1012.19
2018-06-02T09:13:35.440Z,1012.16
2018-06-02T09:14:00.923Z,1012.17
2018-06-02T09:14:26.408Z,1012.19
2018-06-02T09:15:29.533Z,1012.18
2018-06-02T09:15:55.021Z,1012.19
2018-06-02T09:16:20.516Z,1012.16
2018-06-02T09:16:46.362Z,1012.15
2018-06-02T09:17:11.864Z,1012.16
2018-06-02T09:17:37.375Z,1012.19
2018-06-02T09:18:02.837Z,1012.16
2018-06-02T09:18:28.286Z,1012.13
2018-06-02T09:18:53.758Z,1012.16
2018-06-02T09:19:19.219Z,1012.17
2018-06-02T09:19:44.757Z,1012.18
2018-06-02T09:20:10.220Z,1012.17
2018-06-02T09:20:35.782Z,1012.16
2018-06-02T09:21:01.248Z,1012.17
2018-06-02T09:21:26.723Z,1012.18
2018-06-02T09:21:52.303Z,1012.15
2018-06-02T09:22:17.809Z,1012.21
2018-06-02T09:22:43.333Z,1012.14
2018-06-02T09:23:08.868Z,1012.19
2018-06-02T09:23:34.340Z,1012.17
2018-06-02T09:23:59.829Z,1012.19
2018-06-02T09:24:25.335Z,1012.14
2018-06-02T09:24:50.808Z,1012.12
2018-06-02T09:25:16.322Z,1012.17
2018-06-02T09:25:41.852Z,1012.2
2018-06-02T09:26:07.300Z,1012.16
2018-06-02T09:26:32.784Z,1012.16
2018-06-02T09:26:58.273Z,1012.15
2018-06-02T09:27:23.777Z,1012.14
2018-06-02T09:27:49.311Z,1012.18
2018-06-02T09:28:14.743Z,1012.15
2018-06-02T09:28:40.297Z,1012.12
2018-06-02T09:29:05.807Z,1012.16
2018-06-02T09:29:31.273Z,1012.13
2018-06-02T09:29:56.768Z,1012.21
2018-06-02T09:30:22.246Z,1012.15
2018-06-02T09:30:47.769Z,1012.19